Time;durP1;ratioP1;P1;durP2;ratioP2;P2;SDS_P1;SDS_P2;PMS_P1;PMS_P2;Temp;Humidity;BMP_temperature;BMP_pressure;BME280_temperature;BME280_humidity;BME280_pressure;Samples;Min_cycle;Max_cycle;Signal;HPM_P1;HPM_P2
2021/11/05 00:01:48;;;;;;;18.58;6.85;;;;;;;6.45;94.03;102189.81;5017153;28;20090;-83
2021/11/05 00:04:14;;;;;;;17.65;6.47;;;;;;;6.39;94.79;102189.28;5033159;28;20035;-83
2021/11/05 00:06:40;;;;;;;23.17;9.05;;;;;;;6.44;94.80;102194.31;5017140;28;20487;-82
2021/11/05 00:09:06;;;;;;;17.67;7.85;;;;;;;6.48;95.16;102200.25;5032999;28;20033;-82
2021/11/05 00:11:31;;;;;;;17.23;7.85;;;;;;;6.45;94.66;102198.66;5017202;28;20033;-84
2021/11/05 00:13:57;;;;;;;18.77;8.63;;;;;;;6.49;95.01;102205.50;5033310;28;20029;-82
2021/11/05 00:16:23;;;;;;;20.48;8.32;;;;;;;6.51;94.71;102205.38;5033160;28;20037;-82
2021/11/05 00:18:48;;;;;;;21.67;8.63;;;;;;;6.52;94.28;102204.44;5049788;28;20025;-82
2021/11/05 00:21:14;;;;;;;25.95;8.23;;;;;;;6.41;94.83;102186.53;5033455;28;20402;-83
2021/11/05 00:23:40;;;;;;;21.05;8.45;;;;;;;6.47;94.28;102190.56;5032876;28;20055;-83
2021/11/05 00:26:05;;;;;;;19.50;8.52;;;;;;;6.50;95.01;102191.16;5049498;28;20045;-82
2021/11/05 00:28:31;;;;;;;18.92;7.70;;;;;;;6.52;95.27;102199.94;5016570;28;20127;-82
2021/11/05 00:30:57;;;;;;;15.65;8.10;;;;;;;6.46;95.72;102199.53;5049714;28;20028;-82
2021/11/05 00:33:23;;;;;;;22.00;8.63;;;;;;;6.43;95.73;102203.28;5033048;28;20421;-82
2021/11/05 00:35:48;;;;;;;18.83;7.65;;;;;;;6.47;95.97;102215.44;5032628;28;20040;-82
2021/11/05 00:38:14;;;;;;;21.98;8.75;;;;;;;6.44;95.78;102215.69;5049272;28;20033;-82
2021/11/05 00:40:40;;;;;;;23.45;9.02;;;;;;;6.45;95.89;102216.53;5049573;28;20037;-82
2021/11/05 00:43:06;;;;;;;28.60;8.10;;;;;;;6.46;95.93;102221.78;5016628;28;20037;-82
2021/11/05 00:45:32;;;;;;;23.65;8.63;;;;;;;6.44;95.60;102210.34;5016706;28;20036;-82
2021/11/05 00:47:57;;;;;;;20.50;8.98;;;;;;;6.45;95.78;102216.53;5049234;28;20043;-82
2021/11/05 00:50:23;;;;;;;27.30;9.38;;;;;;;6.38;96.01;102200.97;5016464;28;20032;-82
2021/11/05 00:52:49;;;;;;;24.48;8.95;;;;;;;6.48;95.57;102217.13;5049337;28;20028;-82
2021/11/05 00:55:15;;;;;;;18.67;8.65;;;;;;;6.50;96.00;102217.88;5036395;28;20508;-82
2021/11/05 00:57:40;;;;;;;14.77;7.03;;;;;;;6.53;95.92;102214.13;5053262;28;20044;-82
2021/11/05 01:00:12;;;;;;;23.73;9.05;;;;;;;6.54;95.68;102213.19;5019860;28;20075;-82
2021/11/05 01:02:39;;;;;;;21.27;8.43;;;;;;;6.54;95.19;102200.69;5020229;28;20025;-82
2021/11/05 01:05:05;;;;;;;21.90;9.10;;;;;;;6.47;95.44;102191.41;5052618;28;20036;-84
2021/11/05 01:07:30;;;;;;;32.03;8.70;;;;;;;6.55;95.08;102202.38;5052887;28;20037;-82
2021/11/05 01:09:56;;;;;;;16.10;9.68;;;;;;;6.55;95.18;102202.38;5052577;28;20402;-82
2021/11/05 01:12:22;;;;;;;22.98;8.57;;;;;;;6.56;95.37;102198.75;5036340;28;20463;-82
2021/11/05 01:14:48;;;;;;;24.00;8.23;;;;;;;6.52;95.54;102207.09;5035763;28;20029;-84
2021/11/05 01:17:14;;;;;;;19.10;8.43;;;;;;;6.45;95.26;102190.66;5035932;28;20036;-83
2021/11/05 01:19:39;;;;;;;21.00;7.95;;;;;;;6.56;95.07;102204.09;5036039;28;20083;-82
2021/11/05 01:22:05;;;;;;;17.00;8.95;;;;;;;6.58;95.20;102199.47;5069383;28;20415;-82
2021/11/05 01:24:31;;;;;;;17.60;8.13;;;;;;;6.57;95.54;102194.25;5052540;28;20033;-84
2021/11/05 01:26:57;;;;;;;21.77;7.80;;;;;;;6.62;95.68;102202.78;5036040;28;20064;-83
2021/11/05 01:29:23;;;;;;;19.45;7.95;;;;;;;6.57;95.07;102194.25;5019469;28;20687;-82
2021/11/05 01:31:49;;;;;;;25.80;8.50;;;;;;;6.63;95.36;102208.97;5035911;28;20029;-82
2021/11/05 01:34:15;;;;;;;17.17;8.07;;;;;;;6.54;95.57;102184.63;5035789;28;20029;-83
2021/11/05 01:36:41;;;;;;;20.95;8.85;;;;;;;6.61;95.62;102203.72;5035817;28;20129;-82
2021/11/05 01:39:07;;;;;;;25.50;9.95;;;;;;;6.57;95.57;102196.91;5035831;28;20127;-83
2021/11/05 01:41:37;;;;;;;18.35;7.70;;;;;;;6.63;96.13;102206.28;5035554;28;20064;-82
2021/11/05 01:44:03;;;;;;;15.07;7.28;;;;;;;6.60;96.42;102196.69;5052400;28;20051;-82
2021/11/05 01:46:28;;;;;;;18.85;8.68;;;;;;;6.56;96.60;102192.53;5019189;28;20119;-82
2021/11/05 01:48:54;;;;;;;17.85;9.02;;;;;;;6.58;96.56;102201.28;5018898;28;20029;-83
2021/11/05 01:51:21;;;;;;;18.38;8.43;;;;;;;6.52;96.37;102191.06;5035413;28;20390;-82
2021/11/05 01:53:47;;;;;;;23.08;8.48;;;;;;;6.60;96.34;102207.38;5035653;28;20109;-82
2021/11/05 01:56:13;;;;;;;15.25;7.45;;;;;;;6.55;96.54;102197.03;5018918;28;20158;-82
2021/11/05 01:58:38;;;;;;;25.45;8.30;;;;;;;6.59;96.79;102201.19;5035102;28;20037;-83
2021/11/05 02:01:05;;;;;;;16.73;6.97;;;;;;;6.59;97.02;102197.66;5035364;28;20032;-83
2021/11/05 02:03:30;;;;;;;15.65;6.93;;;;;;;6.52;97.01;102188.38;5018713;28;20033;-82
2021/11/05 02:05:57;;;;;;;19.65;7.38;;;;;;;6.44;97.33;102178.28;5034977;28;20174;-82
2021/11/05 02:08:24;;;;;;;19.30;7.20;;;;;;;6.49;97.19;102202.00;5018639;28;20044;-82
2021/11/05 02:10:49;;;;;;;16.08;5.93;;;;;;;6.44;97.03;102199.66;5034803;28;20090;-82
2021/11/05 02:13:17;;;;;;;18.25;6.55;;;;;;;6.39;96.96;102191.13;5051748;28;20474;-82
2021/11/05 02:15:42;;;;;;;22.90;6.32;;;;;;;6.38;97.27;102189.44;5034948;28;20051;-82
2021/11/05 02:18:08;;;;;;;19.27;5.78;;;;;;;6.37;97.48;102198.38;5035073;28;20037;-82
2021/11/05 02:20:34;;;;;;;20.70;6.43;;;;;;;6.33;97.43;102204.94;5034868;28;20029;-82
2021/11/05 02:23:00;;;;;;;12.65;5.63;;;;;;;6.29;97.81;102198.09;5018523;28;20057;-82
2021/11/05 02:25:26;;;;;;;11.73;6.43;;;;;;;6.27;98.37;102208.03;5051697;28;20143;-82
2021/11/05 02:27:53;;;;;;;16.38;6.13;;;;;;;6.16;98.49;102196.31;5018296;28;20025;-82
2021/11/05 02:30:19;;;;;;;18.27;6.40;;;;;;;6.23;98.69;102217.25;5051153;28;20032;-82
2021/11/05 02:32:45;;;;;;;20.65;6.78;;;;;;;6.21;98.55;102208.50;5017241;28;20479;-83
2021/11/05 02:35:13;;;;;;;16.90;7.63;;;;;;;6.19;99.04;102205.91;5034783;28;20075;-83
2021/11/05 02:37:39;;;;;;;19.48;6.78;;;;;;;6.25;99.22;102210.00;5018112;28;20043;-82
2021/11/05 02:40:05;;;;;;;15.82;6.32;;;;;;;6.25;98.87;102210.84;5050974;28;20024;-82
2021/11/05 02:42:31;;;;;;;15.20;6.05;;;;;;;6.29;98.74;102214.13;5034469;28;20159;-82
2021/11/05 02:44:57;;;;;;;13.95;7.35;;;;;;;6.30;99.01;102207.84;5034467;28;20123;-82
2021/11/05 02:47:27;;;;;;;20.88;6.55;;;;;;;6.31;99.61;102207.72;5017645;28;20430;-82
2021/11/05 02:50:14;;;;;;;14.85;6.78;;;;;;;6.30;99.12;102198.00;5017620;28;20198;-82
2021/11/05 02:52:40;;;;;;;18.60;6.60;;;;;;;6.29;99.47;102195.44;5050474;28;20028;-82
2021/11/05 02:55:07;;;;;;;19.23;8.52;;;;;;;6.30;99.62;102208.69;5034107;28;20054;-81
2021/11/05 02:57:33;;;;;;;15.82;7.10;;;;;;;6.21;99.45;102181.78;5033876;28;20406;-83
2021/11/05 02:59:58;;;;;;;18.70;7.47;;;;;;;6.26;100.00;102187.66;5034340;28;20025;-82
2021/11/05 03:02:25;;;;;;;22.77;7.95;;;;;;;6.32;99.87;102196.03;5017802;28;20025;-84
2021/11/05 03:04:52;;;;;;;19.25;7.68;;;;;;;6.27;99.77;102195.56;5034218;28;20051;-83
2021/11/05 03:07:17;;;;;;;24.27;7.35;;;;;;;6.33;100.00;102191.59;5034068;28;20482;-82
2021/11/05 03:09:44;;;;;;;16.58;7.18;;;;;;;6.34;100.00;102179.91;5050618;28;20036;-82
2021/11/05 03:12:11;;;;;;;21.25;6.97;;;;;;;6.31;99.86;102178.31;5050558;28;20467;-82
2021/11/05 03:14:38;;;;;;;20.25;6.35;;;;;;;6.37;100.00;102177.84;5017501;28;20037;-82
2021/11/05 03:17:05;;;;;;;16.17;6.50;;;;;;;6.39;100.00;102169.75;5016727;28;20037;-84
2021/11/05 03:19:31;;;;;;;16.95;7.00;;;;;;;6.38;99.96;102163.56;5033946;28;20112;-82
2021/11/05 03:21:57;;;;;;;18.50;5.85;;;;;;;6.42;100.00;102172.19;5033764;28;20116;-84
2021/11/05 03:24:23;;;;;;;15.07;5.90;;;;;;;6.42;100.00;102177.53;5034111;28;20048;-82
2021/11/05 03:26:49;;;;;;;14.93;5.82;;;;;;;6.41;99.99;102172.31;5033590;28;20031;-83
2021/11/05 03:29:15;;;;;;;13.93;6.10;;;;;;;6.49;99.89;102178.78;5033487;28;20025;-82
2021/11/05 03:31:41;;;;;;;16.23;5.40;;;;;;;6.52;99.89;102188.38;5033809;28;20032;-82
2021/11/05 03:34:07;;;;;;;12.93;5.00;;;;;;;6.48;100.00;102177.06;5033501;28;20124;-83
2021/11/05 03:36:33;;;;;;;13.07;5.32;;;;;;;6.45;99.74;102171.94;5017206;28;20143;-82
2021/11/05 03:38:59;;;;;;;12.35;5.03;;;;;;;6.53;100.00;102188.25;5033471;28;20036;-83
2021/11/05 03:41:25;;;;;;;15.93;5.72;;;;;;;6.55;99.58;102188.16;5033625;28;20033;-82
2021/11/05 03:43:51;;;;;;;15.02;5.50;;;;;;;6.53;100.00;102192.75;5033595;28;20068;-82
2021/11/05 03:46:18;;;;;;;14.50;5.35;;;;;;;6.56;100.00;102204.09;5033547;28;20060;-82
2021/11/05 03:48:44;;;;;;;14.18;4.95;;;;;;;6.53;100.00;102196.28;5033364;28;20039;-82
2021/11/05 03:51:10;;;;;;;17.33;5.25;;;;;;;6.49;100.00;102186.81;5016889;28;20029;-82
2021/11/05 03:53:37;;;;;;;17.38;5.30;;;;;;;6.40;100.00;102182.13;5033377;28;20032;-83
2021/11/05 03:56:03;;;;;;;20.25;5.50;;;;;;;6.51;100.00;102205.38;5050089;28;20071;-82
2021/11/05 03:58:29;;;;;;;14.10;5.10;;;;;;;6.47;100.00;102198.56;5049992;28;20029;-82
2021/11/05 04:00:54;;;;;;;13.05;5.07;;;;;;;6.41;100.00;102191.88;5017243;28;20463;-83
2021/11/05 04:03:21;;;;;;;10.02;4.45;;;;;;;6.33;100.00;102183.56;5049973;28;20040;-82
2021/11/05 04:05:47;;;;;;;12.75;5.20;;;;;;;6.26;100.00;102190.31;5049668;28;20390;-82
2021/11/05 04:08:13;;;;;;;15.15;4.63;;;;;;;6.22;100.00;102189.69;5049604;28;20119;-82
2021/11/05 04:10:38;;;;;;;11.52;4.75;;;;;;;6.15;100.00;102175.94;5049459;28;20024;-83
2021/11/05 04:13:05;;;;;;;10.65;3.88;;;;;;;6.15;100.00;102183.94;5033145;28;20463;-82
2021/11/05 04:15:30;;;;;;;9.45;4.10;;;;;;;6.10;100.00;102174.56;5033479;28;20090;-82
2021/11/05 04:17:56;;;;;;;9.65;3.80;;;;;;;6.21;100.00;102185.31;5050070;28;20462;-82
2021/11/05 04:20:22;;;;;;;11.73;3.70;;;;;;;6.29;100.00;102190.94;5016608;28;20040;-82
2021/11/05 04:22:48;;;;;;;9.43;3.60;;;;;;;6.29;100.00;102184.75;5016838;28;20151;-82
2021/11/05 04:25:14;;;;;;;10.82;4.10;;;;;;;6.38;100.00;102184.94;5032780;28;20120;-82
2021/11/05 04:27:40;;;;;;;13.20;3.92;;;;;;;6.43;100.00;102192.59;5018181;28;20036;-82
2021/11/05 04:30:08;;;;;;;12.35;3.28;;;;;;;6.45;100.00;102187.97;5053422;28;20082;-83
2021/11/05 04:32:33;;;;;;;13.65;4.30;;;;;;;6.54;100.00;102200.69;5020655;28;20043;-82
2021/11/05 04:34:59;;;;;;;10.80;4.00;;;;;;;6.56;100.00;102192.53;5036665;28;20033;-82
2021/11/05 04:37:24;;;;;;;9.23;3.00;;;;;;;6.53;100.00;102184.75;5037046;28;20044;-83
2021/11/05 04:39:50;;;;;;;7.07;3.38;;;;;;;6.57;100.00;102189.75;5036537;28;20029;-82
2021/11/05 04:42:16;;;;;;;9.05;2.92;;;;;;;6.63;100.00;102206.28;5020625;28;20338;-82
2021/11/05 04:44:41;;;;;;;9.02;3.88;;;;;;;6.57;100.00;102187.06;5020365;28;20044;-82
2021/11/05 04:47:07;;;;;;;8.82;2.70;;;;;;;6.63;100.00;102199.13;5053329;28;20032;-83
2021/11/05 04:49:33;;;;;;;10.30;3.03;;;;;;;6.56;100.00;102193.41;5019750;28;20036;-82
2021/11/05 04:51:58;;;;;;;9.02;2.35;;;;;;;6.60;100.00;102191.34;5053384;28;20033;-82
2021/11/05 04:54:24;;;;;;;9.68;2.67;;;;;;;6.58;100.00;102198.63;5036527;28;20040;-82
2021/11/05 04:56:50;;;;;;;8.50;2.78;;;;;;;6.51;100.00;102200.91;5019979;28;20033;-82
2021/11/05 04:59:18;;;;;;;7.75;2.55;;;;;;;6.58;100.00;102212.81;5052965;28;20463;-82
2021/11/05 05:01:44;;;;;;;9.23;2.50;;;;;;;6.58;100.00;102218.16;5052919;28;20110;-82
2021/11/05 05:04:10;;;;;;;10.00;2.47;;;;;;;6.50;100.00;102198.34;5052567;28;20036;-84
2021/11/05 05:06:36;;;;;;;20.45;3.72;;;;;;;6.56;100.00;102217.47;5052735;28;20033;-82
2021/11/05 05:09:01;;;;;;;5.28;2.28;;;;;;;6.58;100.00;102226.19;5035942;28;20029;-82
2021/11/05 05:11:27;;;;;;;7.30;2.90;;;;;;;6.59;100.00;102222.56;5052909;28;20029;-82
2021/11/05 05:13:53;;;;;;;6.50;2.80;;;;;;;6.57;100.00;102215.63;5036311;28;20036;-82
2021/11/05 05:16:18;;;;;;;11.60;2.65;;;;;;;6.59;100.00;102219.91;5035989;28;20360;-83
2021/11/05 05:18:44;;;;;;;5.82;2.58;;;;;;;6.61;100.00;102217.09;5035965;28;20040;-82
2021/11/05 05:21:10;;;;;;;11.93;3.45;;;;;;;6.55;100.00;102215.72;5052368;28;20389;-82
2021/11/05 05:23:35;;;;;;;9.80;2.85;;;;;;;6.58;100.00;102220.84;5019572;28;20036;-82
2021/11/05 05:26:01;;;;;;;10.48;3.08;;;;;;;6.59;100.00;102217.22;5019400;28;20040;-83
2021/11/05 05:28:30;;;;;;;11.50;3.55;;;;;;;6.53;100.00;102220.31;5052150;28;20036;-82
2021/11/05 05:30:58;;;;;;;11.48;3.25;;;;;;;6.40;100.00;102206.16;5036473;28;20375;-83
2021/11/05 05:33:24;;;;;;;6.53;2.58;;;;;;;6.44;100.00;102225.53;5019236;28;20453;-82
2021/11/05 05:35:50;;;;;;;8.15;2.80;;;;;;;6.32;100.00;102205.88;5019423;28;20035;-82
2021/11/05 05:38:15;;;;;;;5.93;2.80;;;;;;;6.39;100.00;102218.69;5035354;28;20498;-82
2021/11/05 05:40:41;;;;;;;6.10;3.13;;;;;;;6.34;100.00;102226.19;5035064;28;20083;-82
2021/11/05 05:43:06;;;;;;;10.05;3.10;;;;;;;6.30;100.00;102216.69;5018879;28;20041;-82
2021/11/05 05:45:32;;;;;;;13.50;3.53;;;;;;;6.30;100.00;102221.19;5035609;28;20368;-82
2021/11/05 05:47:58;;;;;;;10.48;3.95;;;;;;;6.25;100.00;102212.66;5035264;28;20444;-82
2021/11/05 05:50:23;;;;;;;7.22;2.88;;;;;;;6.31;100.00;102226.41;5035379;28;20025;-82
2021/11/05 05:52:49;;;;;;;9.10;2.78;;;;;;;6.28;100.00;102223.13;5035435;28;20037;-82
2021/11/05 05:55:16;;;;;;;5.82;2.80;;;;;;;6.32;100.00;102232.59;5035449;28;20036;-82
2021/11/05 05:57:42;;;;;;;11.45;2.85;;;;;;;6.33;100.00;102231.66;5035429;28;20036;-82
2021/11/05 06:00:10;;;;;;;5.95;2.50;;;;;;;6.41;100.00;102236.44;5018719;28;20502;-82
2021/11/05 06:02:36;;;;;;;8.48;2.55;;;;;;;6.46;100.00;102229.78;5035252;28;20108;-82
2021/11/05 06:05:02;;;;;;;6.82;2.38;;;;;;;6.42;100.00;102236.31;5018676;28;20086;-82
2021/11/05 06:07:28;;;;;;;9.20;2.78;;;;;;;6.35;100.00;102213.66;5018337;28;20040;-82
2021/11/05 06:09:53;;;;;;;9.38;2.70;;;;;;;6.41;100.00;102231.09;5035036;28;20029;-82
2021/11/05 06:12:19;;;;;;;6.47;3.15;;;;;;;6.42;100.00;102233.63;5052779;28;20029;-82
2021/11/05 06:14:45;;;;;;;8.65;2.88;;;;;;;6.36;100.00;102228.75;5035218;28;20087;-82
2021/11/05 06:17:10;;;;;;;9.40;2.97;;;;;;;6.40;100.00;102243.56;5034960;28;20045;-82
2021/11/05 06:19:36;;;;;;;5.43;2.45;;;;;;;6.33;100.00;102235.16;5018730;28;20025;-82
2021/11/05 06:22:02;;;;;;;7.18;2.53;;;;;;;6.32;100.00;102241.47;5018096;28;20079;-81
2021/11/05 06:24:28;;;;;;;7.35;2.90;;;;;;;6.35;100.00;102245.72;5051506;28;20454;-82
2021/11/05 06:26:53;;;;;;;11.27;3.42;;;;;;;6.27;100.00;102232.06;5051144;28;20039;-82
2021/11/05 06:29:19;;;;;;;6.15;3.08;;;;;;;6.30;100.00;102237.22;5034793;28;20364;-82
2021/11/05 06:31:45;;;;;;;6.47;2.80;;;;;;;6.32;100.00;102248.63;5034445;28;20104;-82
2021/11/05 06:34:10;;;;;;;9.27;3.00;;;;;;;6.23;100.00;102231.47;5018170;28;20033;-82
2021/11/05 06:36:36;;;;;;;9.43;3.00;;;;;;;6.32;100.00;102243.28;5052095;28;20034;-83
2021/11/05 06:39:04;;;;;;;9.75;2.72;;;;;;;6.29;100.00;102247.03;5034455;28;20036;-83
2021/11/05 06:41:29;;;;;;;13.02;3.40;;;;;;;6.21;100.00;102235.19;5017988;28;20033;-82
2021/11/05 06:43:55;;;;;;;9.23;3.35;;;;;;;6.29;100.00;102251.53;5051171;28;20047;-82
2021/11/05 06:46:21;;;;;;;16.13;3.33;;;;;;;6.29;100.00;102262.22;5050867;28;20119;-82
2021/11/05 06:48:47;;;;;;;21.63;4.18;;;;;;;6.21;100.00;102251.22;5050988;28;20024;-82
2021/11/05 06:51:13;;;;;;;24.45;4.43;;;;;;;6.29;100.00;102263.06;5034150;28;20489;-81
2021/11/05 06:53:39;;;;;;;16.88;4.18;;;;;;;6.24;100.00;102240.31;5034274;28;20043;-82
2021/11/05 06:56:05;;;;;;;19.55;3.72;;;;;;;6.33;100.00;102248.53;5034452;28;20036;-83
2021/11/05 06:58:35;;;;;;;18.70;4.13;;;;;;;6.37;100.00;102249.16;5034105;28;20033;-82
2021/11/05 07:01:01;;;;;;;17.42;4.22;;;;;;;6.29;100.00;102238.16;5050534;28;20032;-82
2021/11/05 07:03:26;;;;;;;24.98;4.78;;;;;;;6.36;100.00;102250.97;5033773;28;20032;-82
2021/11/05 07:05:52;;;;;;;15.45;4.45;;;;;;;6.32;100.00;102240.63;5050718;28;20403;-82
2021/11/05 07:08:18;;;;;;;22.05;4.60;;;;;;;6.44;100.00;102260.25;5050576;28;20114;-82
2021/11/05 07:10:45;;;;;;;25.63;5.40;;;;;;;6.42;100.00;102252.34;5034072;28;20390;-83
2021/11/05 07:13:11;;;;;;;21.42;5.03;;;;;;;6.41;100.00;102241.78;5034450;28;20029;-81
2021/11/05 07:15:37;;;;;;;15.05;5.07;;;;;;;6.50;100.00;102259.78;5034083;28;20044;-81
2021/11/05 07:18:02;;;;;;;23.48;4.90;;;;;;;6.49;100.00;102261.63;5033630;28;20036;-82
2021/11/05 07:20:29;;;;;;;18.90;4.57;;;;;;;6.57;100.00;102274.44;5050462;28;20580;-82
2021/11/05 07:22:56;;;;;;;14.30;4.80;;;;;;;6.60;100.00;102279.53;5017436;28;20045;-82
2021/11/05 07:25:21;;;;;;;17.08;7.22;;;;;;;6.65;100.00;102282.72;5017307;28;20059;-82
2021/11/05 07:27:47;;;;;;;14.25;5.40;;;;;;;6.68;100.00;102273.63;5050013;28;20037;-82
2021/11/05 07:30:14;;;;;;;17.02;6.90;;;;;;;6.66;100.00;102267.53;5017259;28;20052;-82
2021/11/05 07:32:45;;;;;;;12.60;5.57;;;;;;;6.68;100.00;102268.28;5050064;28;20051;-82
2021/11/05 07:35:12;;;;;;;12.45;4.78;;;;;;;6.71;100.00;102268.91;5050474;28;20024;-82
2021/11/05 07:37:38;;;;;;;10.25;4.53;;;;;;;6.77;100.00;102262.25;5050224;28;20043;-81
2021/11/05 07:40:04;;;;;;;11.35;3.78;;;;;;;6.89;100.00;102268.50;5033749;28;20032;-82
2021/11/05 07:42:30;;;;;;;8.90;3.10;;;;;;;6.90;100.00;102272.88;5033714;28;20132;-82
2021/11/05 07:44:56;;;;;;;7.63;2.95;;;;;;;6.97;100.00;102274.97;5017182;28;20119;-82
2021/11/05 07:47:23;;;;;;;7.15;3.15;;;;;;;7.03;100.00;102279.84;5016799;28;20036;-82
2021/11/05 07:49:50;;;;;;;6.57;2.75;;;;;;;7.04;100.00;102270.03;5050199;28;20120;-82
2021/11/05 07:52:19;;;;;;;8.57;2.65;;;;;;;7.10;100.00;102279.41;5033753;28;20037;-82
2021/11/05 07:54:47;;;;;;;7.45;3.10;;;;;;;7.09;100.00;102265.16;5033911;28;20044;-82
2021/11/05 07:57:13;;;;;;;8.95;2.78;;;;;;;7.10;100.00;102266.91;5017267;28;20033;-82
2021/11/05 07:59:39;;;;;;;7.15;3.33;;;;;;;7.03;100.00;102261.13;5033402;28;20037;-82
2021/11/05 08:02:05;;;;;;;6.80;3.17;;;;;;;7.10;100.00;102276.75;5017703;28;20052;-82
2021/11/05 08:04:31;;;;;;;12.25;3.53;;;;;;;7.12;100.00;102285.47;5037451;28;20063;-82
2021/11/05 08:06:57;;;;;;;7.55;3.92;;;;;;;7.15;100.00;102290.63;5021251;28;20032;-82
2021/11/05 08:09:22;;;;;;;6.78;3.33;;;;;;;7.12;100.00;102286.34;5037276;28;20463;-83
2021/11/05 08:11:48;;;;;;;6.63;3.75;;;;;;;7.13;100.00;102284.53;5053849;28;20029;-82
2021/11/05 08:14:14;;;;;;;6.35;2.80;;;;;;;7.20;100.00;102300.00;5036870;28;20120;-82
2021/11/05 08:16:39;;;;;;;7.13;2.83;;;;;;;7.26;100.00;102298.69;5020601;28;20102;-81
2021/11/05 08:19:05;;;;;;;6.60;2.70;;;;;;;7.27;100.00;102284.31;5037084;28;20036;-82
2021/11/05 08:21:31;;;;;;;5.82;2.78;;;;;;;7.29;100.00;102284.22;5020758;28;20044;-81
2021/11/05 08:23:57;;;;;;;7.07;2.47;;;;;;;7.34;100.00;102288.25;5053454;28;20025;-82
2021/11/05 08:26:24;;;;;;;7.85;3.15;;;;;;;7.40;100.00;102292.28;5037044;28;20078;-82
2021/11/05 08:28:50;;;;;;;6.13;2.60;;;;;;;7.46;100.00;102307.84;5020203;28;20068;-82
2021/11/05 08:31:18;;;;;;;9.60;3.53;;;;;;;7.53;100.00;102297.53;5036916;28;20087;-82
2021/11/05 08:33:45;;;;;;;12.15;5.05;;;;;;;7.59;100.00;102297.91;5020505;28;20068;-82
2021/11/05 08:36:13;;;;;;;12.68;6.60;;;;;;;7.66;100.00;102295.63;5037006;28;20539;-82
2021/11/05 08:38:43;;;;;;;20.33;8.55;;;;;;;7.82;100.00;102298.81;5036917;28;20313;-82
2021/11/05 08:41:10;;;;;;;14.57;5.88;;;;;;;7.87;100.00;102299.28;5037107;28;20120;-82
2021/11/05 08:43:36;;;;;;;19.65;8.65;;;;;;;7.90;100.00;102291.00;5036873;28;20033;-82
2021/11/05 08:46:03;;;;;;;24.33;9.90;;;;;;;7.92;100.00;102282.88;5020470;28;20086;-82
2021/11/05 08:48:30;;;;;;;49.88;25.35;;;;;;;8.04;100.00;102294.44;5020136;28;20029;-82
2021/11/05 08:50:58;;;;;;;23.10;9.70;;;;;;;8.12;100.00;102295.56;5036475;28;20379;-83
2021/11/05 08:53:23;;;;;;;11.15;6.70;;;;;;;8.13;100.00;102293.72;5052972;28;20047;-82
2021/11/05 08:55:49;;;;;;;12.55;5.20;;;;;;;8.29;100.00;102299.53;5019973;28;20505;-83
2021/11/05 08:58:17;;;;;;;10.90;3.65;;;;;;;8.33;100.00;102303.66;5019692;28;20044;-82
2021/11/05 09:00:42;;;;;;;7.53;2.85;;;;;;;8.42;100.00;102303.97;5036334;28;20037;-83
2021/11/05 09:03:08;;;;;;;4.55;2.03;;;;;;;8.49;100.00;102318.56;5036608;28;20532;-82
2021/11/05 09:05:35;;;;;;;5.25;1.83;;;;;;;8.46;100.00;102306.25;5035924;28;20039;-82
2021/11/05 09:08:00;;;;;;;3.92;1.67;;;;;;;8.44;100.00;102296.63;5036440;28;20040;-82
2021/11/05 09:10:27;;;;;;;4.53;1.50;;;;;;;8.51;100.00;102304.06;5036192;28;20040;-84
2021/11/05 09:12:53;;;;;;;4.25;1.70;;;;;;;8.53;100.00;102302.09;5052442;28;20028;-83
2021/11/05 09:15:21;;;;;;;5.95;1.90;;;;;;;8.55;100.00;102305.53;5051196;28;20037;-83
2021/11/05 09:17:48;;;;;;;6.20;1.40;;;;;;;8.53;100.00;102295.91;5035931;28;20025;-84
2021/11/05 09:20:15;;;;;;;3.97;1.40;;;;;;;8.55;100.00;102308.19;5036005;28;20086;-82
2021/11/05 09:22:41;;;;;;;3.40;1.38;;;;;;;8.51;100.00;102311.25;5036125;28;20087;-82
2021/11/05 09:25:07;;;;;;;6.78;1.65;;;;;;;8.58;100.00;102316.00;5052259;28;20032;-83
2021/11/05 09:27:34;;;;;;;5.95;1.73;;;;;;;8.61;100.00;102319.41;5035929;28;20102;-82
2021/11/05 09:30:00;;;;;;;3.22;1.42;;;;;;;8.63;100.00;102317.47;5052170;28;20112;-83
2021/11/05 09:32:25;;;;;;;8.43;3.83;;;;;;;8.71;100.00;102321.22;5036075;28;20149;-83
2021/11/05 09:34:52;;;;;;;4.03;1.27;;;;;;;8.78;100.00;102334.97;5035765;28;20040;-82
2021/11/05 09:37:18;;;;;;;4.03;1.42;;;;;;;8.83;100.00;102334.59;5035726;28;20132;-83
2021/11/05 09:39:44;;;;;;;3.33;1.73;;;;;;;8.90;100.00;102333.97;5019233;28;20124;-82
2021/11/05 09:42:09;;;;;;;10.73;1.80;;;;;;;8.99;100.00;102329.66;5035623;28;20039;-84
2021/11/05 09:44:35;;;;;;;6.25;1.67;;;;;;;9.09;100.00;102325.22;5035605;28;20043;-83
2021/11/05 09:47:03;;;;;;;7.22;2.00;;;;;;;9.15;100.00;102335.44;5035285;28;20087;-83
2021/11/05 09:49:31;;;;;;;5.38;1.92;;;;;;;9.15;100.00;102338.13;5018914;28;20032;-84
2021/11/05 09:51:59;;;;;;;14.35;6.30;;;;;;;9.19;100.00;102338.75;5051839;28;20531;-83
2021/11/05 09:54:25;;;;;;;5.85;1.50;;;;;;;9.17;100.00;102324.59;5035050;28;20063;-83
2021/11/05 09:56:52;;;;;;;7.47;2.97;;;;;;;9.23;100.00;102319.59;5035167;28;20115;-82
2021/11/05 09:59:17;;;;;;;7.70;3.42;;;;;;;9.32;100.00;102326.00;5035457;28;20036;-82
2021/11/05 10:01:43;;;;;;;6.28;2.17;;;;;;;9.33;100.00;102327.69;5035260;28;20095;-82
2021/11/05 10:04:09;;;;;;;3.03;1.40;;;;;;;9.43;100.00;102341.19;5019155;28;20060;-83
2021/11/05 10:06:35;;;;;;;5.60;1.40;;;;;;;9.42;100.00;102329.63;5051880;28;20033;-83
2021/11/05 10:09:03;;;;;;;7.05;1.63;;;;;;;9.55;100.00;102334.81;5018456;28;20024;-84
2021/11/05 10:11:32;;;;;;;3.58;1.45;;;;;;;9.60;100.00;102329.84;5018757;28;20033;-84
2021/11/05 10:13:59;;;;;;;8.88;1.25;;;;;;;9.61;100.00;102330.75;5051524;28;20143;-82
2021/11/05 10:16:27;;;;;;;4.45;1.67;;;;;;;9.64;100.00;102334.00;5034730;28;20071;-83
2021/11/05 10:18:56;;;;;;;4.57;1.02;;;;;;;9.64;100.00;102325.94;5035317;28;20532;-83
2021/11/05 10:21:22;;;;;;;3.85;1.13;;;;;;;9.62;100.00;102322.53;5034669;28;20391;-83
2021/11/05 10:23:48;;;;;;;2.08;1.08;;;;;;;9.69;100.00;102342.53;5034972;28;20033;-83
2021/11/05 10:26:28;;;;;;;3.08;1.15;;;;;;;9.71;100.00;102330.78;5034463;28;20044;-83
2021/11/05 10:28:54;;;;;;;3.72;1.15;;;;;;;9.74;100.00;102322.44;5035196;28;20033;-84
2021/11/05 10:31:20;;;;;;;7.07;1.75;;;;;;;9.79;100.00;102321.09;5034696;28;20486;-83
2021/11/05 10:33:50;;;;;;;2.67;0.90;;;;;;;9.79;100.00;102329.16;5018156;28;20486;-83
2021/11/05 10:36:17;;;;;;;2.45;0.80;;;;;;;9.92;100.00;102337.00;5018083;28;20051;-83
2021/11/05 10:38:53;;;;;;;4.50;1.30;;;;;;;9.97;100.00;102334.75;5034415;28;20103;-83
2021/11/05 10:41:21;;;;;;;3.08;0.88;;;;;;;9.98;100.00;102341.84;5034668;28;20060;-83
2021/11/05 10:43:58;;;;;;;3.33;0.90;;;;;;;9.89;100.00;102339.94;5051128;28;20090;-83
2021/11/05 10:46:30;;;;;;;4.30;0.77;;;;;;;9.80;100.00;102330.84;5017908;28;20025;-83
2021/11/05 10:49:15;;;;;;;1.13;1.08;;;;;;;9.77;100.00;102341.88;5017995;28;20029;-82
2021/11/05 10:51:41;;;;;;;2.22;0.80;;;;;;;9.73;100.00;102336.88;5034497;28;20049;-82
2021/11/05 10:54:06;;;;;;;2.70;0.98;;;;;;;9.71;100.00;102337.00;5050823;28;20040;-82
2021/11/05 10:56:33;;;;;;;2.78;1.00;;;;;;;9.80;100.00;102340.75;5034117;28;20215;-83
2021/11/05 10:59:04;;;;;;;4.88;1.05;;;;;;;9.93;100.00;102340.56;5034040;28;20127;-83
2021/11/05 11:01:34;;;;;;;3.15;1.10;;;;;;;10.16;100.00;102338.53;5034286;28;20497;-83
2021/11/05 11:04:08;;;;;;;3.92;1.05;;;;;;;10.34;100.00;102323.50;5017968;28;20033;-83
2021/11/05 11:06:37;;;;;;;3.65;0.93;;;;;;;10.68;100.00;102347.38;5050665;28;20105;-84
2021/11/05 11:09:15;;;;;;;4.93;1.23;;;;;;;10.69;100.00;102339.19;5050337;28;20029;-83
2021/11/05 11:11:43;;;;;;;3.40;0.98;;;;;;;10.72;100.00;102349.69;5033654;28;20120;-82
2021/11/05 11:14:17;;;;;;;1.52;0.88;;;;;;;10.69;100.00;102338.31;5050501;28;20029;-83
2021/11/05 11:16:47;;;;;;;3.25;1.20;;;;;;;10.76;99.46;102320.66;5034258;28;20036;-82
2021/11/05 11:19:19;;;;;;;1.58;0.90;;;;;;;10.95;98.96;102336.81;5050654;28;20035;-82